createdAt,value
2022-11-16T00:00:13.879Z,9.27
2022-11-16T00:02:43.514Z,8.37
2022-11-16T00:05:11.933Z,7.27
2022-11-16T00:07:40.153Z,9.00
2022-11-16T00:10:11.298Z,9.07
2022-11-16T00:12:40.063Z,7.27
2022-11-16T00:15:09.340Z,9.87
2022-11-16T00:17:43.830Z,9.57
2022-11-16T00:20:12.931Z,9.43
2022-11-16T00:22:41.184Z,8.70
2022-11-16T00:25:10.115Z,10.33
2022-11-16T00:27:38.357Z,10.20
2022-11-16T00:30:07.990Z,8.73
2022-11-16T00:32:36.292Z,8.67
2022-11-16T00:35:07.037Z,9.60
2022-11-16T00:37:35.329Z,9.13
2022-11-16T00:40:04.198Z,8.50
2022-11-16T00:42:32.451Z,7.60
2022-11-16T00:45:00.926Z,9.53
2022-11-16T00:47:29.135Z,9.03
2022-11-16T00:49:57.363Z,8.13
2022-11-16T00:52:27.340Z,6.53
2022-11-16T00:54:55.927Z,8.27
2022-11-16T00:57:25.128Z,8.17
2022-11-16T00:59:53.501Z,9.70
2022-11-16T01:02:22.486Z,8.00
2022-11-16T01:05:00.723Z,9.63
2022-11-16T01:07:32.923Z,8.50
2022-11-16T01:10:01.303Z,10.57
2022-11-16T01:12:28.591Z,7.03
2022-11-16T01:14:56.893Z,7.70
2022-11-16T01:17:25.546Z,11.30
2022-11-16T01:19:54.045Z,9.30
2022-11-16T01:22:23.113Z,7.93
2022-11-16T01:24:52.731Z,9.50
2022-11-16T01:27:20.956Z,8.00
2022-11-16T01:29:49.267Z,8.37
2022-11-16T01:32:18.293Z,9.77
2022-11-16T01:34:46.587Z,9.67
2022-11-16T01:37:26.253Z,9.63
2022-11-16T01:39:56.484Z,7.80
2022-11-16T01:42:28.053Z,8.83
2022-11-16T01:45:08.456Z,9.10
2022-11-16T01:47:36.771Z,8.70
2022-11-16T01:50:11.596Z,6.53
2022-11-16T01:52:47.065Z,7.77
2022-11-16T01:55:17.656Z,8.87
2022-11-16T01:58:07.276Z,9.23
2022-11-16T02:00:56.125Z,8.17
2022-11-16T02:03:38.477Z,11.43
2022-11-16T02:06:34.373Z,14.63
2022-11-16T02:10:00.512Z,8.50
2022-11-16T02:12:57.734Z,10.13
2022-11-16T02:15:42.597Z,8.00
2022-11-16T02:18:32.833Z,8.67
2022-11-16T02:21:34.444Z,9.67
2022-11-16T02:24:18.513Z,10.97
2022-11-16T02:27:16.608Z,8.30
2022-11-16T02:29:51.590Z,7.80
2022-11-16T02:32:27.571Z,8.33
2022-11-16T02:35:02.532Z,8.43
2022-11-16T02:37:35.983Z,8.50
2022-11-16T02:40:10.943Z,8.37
2022-11-16T02:42:45.149Z,8.23
2022-11-16T02:45:21.213Z,8.57
2022-11-16T02:47:52.384Z,9.50
2022-11-16T02:50:23.363Z,8.23
2022-11-16T02:52:51.604Z,9.43
2022-11-16T02:55:20.149Z,9.80
2022-11-16T02:57:54.901Z,9.07
2022-11-16T03:00:28.841Z,7.93
2022-11-16T03:03:09.494Z,9.97
2022-11-16T03:05:42.565Z,9.17
2022-11-16T03:08:19.933Z,10.97
2022-11-16T03:11:13.946Z,8.43
2022-11-16T03:13:43.588Z,8.00
2022-11-16T03:16:19.156Z,8.77
2022-11-16T03:18:51.883Z,8.47
2022-11-16T03:21:26.865Z,9.50
2022-11-16T03:23:55.605Z,10.10
2022-11-16T03:26:31.463Z,9.13
2022-11-16T03:29:05.669Z,7.77
2022-11-16T03:31:44.675Z,9.63
2022-11-16T03:34:20.978Z,7.93
2022-11-16T03:36:51.613Z,9.23
2022-11-16T03:39:24.852Z,9.73
2022-11-16T03:41:53.555Z,13.47
2022-11-16T03:44:22.820Z,7.03
2022-11-16T03:46:52.445Z,7.47
2022-11-16T03:49:23.262Z,7.97
2022-11-16T03:51:54.005Z,9.33
2022-11-16T03:54:22.733Z,7.17
2022-11-16T03:56:51.141Z,8.17
2022-11-16T03:59:19.716Z,9.73
2022-11-16T04:01:48.106Z,7.80
2022-11-16T04:04:32.072Z,8.13
2022-11-16T04:07:22.293Z,7.90
2022-11-16T04:10:08.244Z,9.30
2022-11-16T04:12:53.969Z,6.93
2022-11-16T04:15:39.879Z,9.17
2022-11-16T04:18:28.406Z,6.63
2022-11-16T04:21:15.938Z,6.67
2022-11-16T04:24:01.449Z,8.00
2022-11-16T04:26:43.907Z,8.47
2022-11-16T04:29:14.536Z,8.13
2022-11-16T04:32:00.568Z,7.07
2022-11-16T04:34:52.207Z,7.63
2022-11-16T04:37:39.549Z,8.33
2022-11-16T04:40:09.975Z,6.73
2022-11-16T04:42:38.234Z,11.67
2022-11-16T04:45:25.234Z,8.57
2022-11-16T04:47:54.983Z,6.93
2022-11-16T04:50:28.554Z,7.33
2022-11-16T04:52:58.921Z,6.20
2022-11-16T04:55:27.744Z,7.67
2022-11-16T04:57:56.090Z,7.80
2022-11-16T05:00:24.581Z,6.83
2022-11-16T05:02:56.921Z,7.47
2022-11-16T05:05:35.158Z,5.93
2022-11-16T05:08:05.677Z,6.67
2022-11-16T05:10:34.728Z,6.37
2022-11-16T05:13:03.038Z,7.13
2022-11-16T05:15:31.329Z,4.83
2022-11-16T05:18:01.073Z,4.87
2022-11-16T05:20:48.040Z,4.90
2022-11-16T05:23:35.482Z,5.97
2022-11-16T05:26:09.637Z,5.20
2022-11-16T05:28:38.101Z,4.90
2022-11-16T05:31:08.717Z,6.50
2022-11-16T05:33:37.623Z,5.70
2022-11-16T05:36:06.904Z,5.17
2022-11-16T05:38:36.756Z,6.53
2022-11-16T05:41:07.095Z,6.23
2022-11-16T05:43:35.367Z,5.80
2022-11-16T05:46:15.888Z,7.57
2022-11-16T05:48:45.155Z,7.07
2022-11-16T05:51:14.473Z,6.07
2022-11-16T05:53:44.729Z,10.27
2022-11-16T05:56:18.074Z,10.57
2022-11-16T05:58:48.016Z,9.77
2022-11-16T06:01:16.654Z,8.13
2022-11-16T06:03:45.134Z,8.90
2022-11-16T06:06:13.551Z,9.37
2022-11-16T06:08:44.157Z,7.17
2022-11-16T06:11:16.427Z,8.90
2022-11-16T06:13:45.086Z,8.83
2022-11-16T06:16:14.218Z,9.77
2022-11-16T06:18:45.881Z,12.13
2022-11-16T06:21:19.202Z,11.47
2022-11-16T06:23:49.968Z,10.93
2022-11-16T06:26:18.546Z,11.67
2022-11-16T06:28:51.010Z,10.63
2022-11-16T06:31:19.284Z,10.47
2022-11-16T06:33:47.575Z,11.17
2022-11-16T06:36:21.260Z,9.23
2022-11-16T06:38:51.873Z,14.17
2022-11-16T06:41:21.531Z,10.30
2022-11-16T06:43:51.484Z,10.23
2022-11-16T06:46:24.615Z,8.83
2022-11-16T06:48:53.997Z,8.00
2022-11-16T06:51:22.438Z,8.80
2022-11-16T06:53:52.074Z,10.33
2022-11-16T06:56:21.708Z,9.63
2022-11-16T06:58:56.605Z,7.87
2022-11-16T07:01:26.798Z,10.27
2022-11-16T07:04:01.464Z,9.23
2022-11-16T07:06:30.875Z,5.93
2022-11-16T07:09:02.176Z,7.40
2022-11-16T07:11:40.184Z,7.13
2022-11-16T07:14:09.089Z,5.77
2022-11-16T07:16:37.991Z,6.17
2022-11-16T07:19:06.538Z,6.53
2022-11-16T07:21:38.240Z,6.13
2022-11-16T07:24:12.326Z,5.63
2022-11-16T07:26:40.585Z,9.70
2022-11-16T07:29:15.838Z,10.47
2022-11-16T07:32:01.496Z,10.47
2022-11-16T07:34:52.486Z,19.63
2022-11-16T07:37:20.909Z,21.90
2022-11-16T07:39:50.558Z,20.63
2022-11-16T07:42:19.494Z,14.23
2022-11-16T07:45:23.567Z,10.33
2022-11-16T07:47:59.372Z,7.60
2022-11-16T07:50:46.442Z,5.57
2022-11-16T07:53:15.257Z,7.83
2022-11-16T07:55:44.867Z,7.03
2022-11-16T07:58:14.731Z,7.10
2022-11-16T08:00:43.168Z,5.57
2022-11-16T08:03:19.311Z,6.23
2022-11-16T08:06:00.861Z,5.63
2022-11-16T08:08:30.082Z,5.93
2022-11-16T08:11:02.522Z,5.30
2022-11-16T08:13:34.069Z,7.87
2022-11-16T08:16:03.841Z,5.30
2022-11-16T08:18:34.760Z,5.80
2022-11-16T08:21:05.332Z,4.13
2022-11-16T08:23:33.910Z,8.17
2022-11-16T08:26:06.845Z,4.37
2022-11-16T08:29:29.277Z,5.10
2022-11-16T08:32:00.081Z,6.30
2022-11-16T08:34:53.612Z,6.67
2022-11-16T08:37:23.565Z,5.00
2022-11-16T08:39:51.905Z,6.07
2022-11-16T08:42:22.737Z,6.27
2022-11-16T08:44:51.230Z,4.57
2022-11-16T08:47:21.717Z,5.37
2022-11-16T08:49:57.283Z,4.70
2022-11-16T08:52:27.723Z,3.87
2022-11-16T08:54:56.900Z,5.57
2022-11-16T08:57:26.591Z,5.23
2022-11-16T08:59:59.172Z,4.77
2022-11-16T09:02:27.455Z,3.87
2022-11-16T09:05:20.972Z,5.03
2022-11-16T09:07:53.960Z,3.13
2022-11-16T09:10:25.106Z,4.50
2022-11-16T09:12:54.749Z,4.20
2022-11-16T09:15:23.018Z,7.27
2022-11-16T09:17:54.812Z,4.07
2022-11-16T09:20:23.188Z,3.30
2022-11-16T09:22:51.442Z,3.20
2022-11-16T09:25:19.726Z,3.73
2022-11-16T09:27:48.389Z,2.97
2022-11-16T09:30:18.641Z,3.63
2022-11-16T09:32:46.881Z,2.27
2022-11-16T09:35:15.290Z,4.97
2022-11-16T09:37:43.531Z,4.27
2022-11-16T09:40:13.172Z,5.17
2022-11-16T09:42:58.504Z,3.17
2022-11-16T09:45:37.995Z,3.60
2022-11-16T09:48:12.322Z,4.17
2022-11-16T09:50:47.051Z,6.73
2022-11-16T09:53:27.107Z,4.17
2022-11-16T09:55:58.301Z,4.27
2022-11-16T09:58:33.279Z,2.40
2022-11-16T10:01:13.860Z,2.93
2022-11-16T10:03:49.114Z,3.30
2022-11-16T10:06:23.889Z,4.77
2022-11-16T10:08:56.608Z,3.13
2022-11-16T10:11:55.522Z,4.80
2022-11-16T10:14:47.090Z,2.63
2022-11-16T10:17:28.811Z,2.83
2022-11-16T10:20:05.409Z,6.80
2022-11-16T10:22:47.917Z,3.73
2022-11-16T10:25:18.054Z,6.73
2022-11-16T10:28:19.373Z,4.43
2022-11-16T10:30:55.777Z,2.67
2022-11-16T10:33:35.060Z,5.40
2022-11-16T10:36:06.763Z,6.20
2022-11-16T10:38:35.052Z,4.13
2022-11-16T10:41:14.209Z,1.57
2022-11-16T10:43:44.554Z,5.27
2022-11-16T10:46:21.813Z,2.80
2022-11-16T10:48:59.990Z,6.90
2022-11-16T10:51:28.332Z,3.53
2022-11-16T10:53:57.113Z,4.10
2022-11-16T10:56:30.087Z,4.80
2022-11-16T10:59:01.153Z,3.77
2022-11-16T11:01:37.090Z,6.50
2022-11-16T11:04:21.984Z,3.53
2022-11-16T11:06:53.564Z,3.43
2022-11-16T11:09:27.750Z,3.90
2022-11-16T11:12:32.147Z,4.90
2022-11-16T11:15:04.847Z,5.77
2022-11-16T11:17:35.423Z,5.37
2022-11-16T11:20:12.009Z,4.30
2022-11-16T11:22:45.447Z,5.43
2022-11-16T11:25:23.394Z,3.53
2022-11-16T11:27:54.039Z,5.30
2022-11-16T11:30:23.178Z,3.73
2022-11-16T11:32:52.872Z,7.90
2022-11-16T11:35:27.974Z,5.73
2022-11-16T11:38:01.167Z,5.87
2022-11-16T11:40:32.825Z,6.53
2022-11-16T11:43:08.000Z,5.33
2022-11-16T11:45:43.859Z,8.03
2022-11-16T11:48:27.917Z,3.63
2022-11-16T11:51:02.247Z,4.50
2022-11-16T11:53:54.071Z,3.50
2022-11-16T11:56:22.712Z,8.53
2022-11-16T11:58:52.011Z,5.47
2022-11-16T12:01:50.732Z,6.27
2022-11-16T12:05:11.669Z,7.70
2022-11-16T12:08:12.448Z,7.50
2022-11-16T12:10:51.020Z,3.53
2022-11-16T12:13:46.439Z,3.67
2022-11-16T12:16:26.213Z,5.93
2022-11-16T12:19:21.174Z,3.97
2022-11-16T12:22:02.102Z,3.00
2022-11-16T12:24:48.394Z,4.40
2022-11-16T12:27:27.105Z,4.90
2022-11-16T12:30:07.868Z,4.63
2022-11-16T12:33:06.236Z,2.40
2022-11-16T12:35:50.086Z,3.63
2022-11-16T12:38:42.857Z,4.20
2022-11-16T12:41:45.973Z,4.93
2022-11-16T12:44:20.695Z,4.87
2022-11-16T12:46:59.300Z,6.77
2022-11-16T12:50:02.908Z,3.17
2022-11-16T12:52:53.646Z,8.23
2022-11-16T12:55:31.595Z,6.87
2022-11-16T12:58:19.681Z,3.87
2022-11-16T13:01:03.003Z,2.33
2022-11-16T13:03:39.449Z,3.33
2022-11-16T13:06:47.145Z,7.93
2022-11-16T13:09:20.241Z,4.00
2022-11-16T13:11:52.483Z,3.53
2022-11-16T13:14:28.542Z,6.67
2022-11-16T13:16:58.635Z,3.67
2022-11-16T13:19:27.649Z,2.33
2022-11-16T13:22:03.158Z,3.17
2022-11-16T13:24:48.455Z,3.93
2022-11-16T13:27:37.341Z,1.97
2022-11-16T13:30:17.984Z,2.90
2022-11-16T13:33:04.119Z,3.20
2022-11-16T13:35:33.011Z,3.93
2022-11-16T13:38:01.222Z,5.27
2022-11-16T13:40:36.824Z,6.53
2022-11-16T13:43:16.749Z,4.37
2022-11-16T13:45:57.980Z,5.07
2022-11-16T13:48:32.991Z,2.53
2022-11-16T13:51:04.557Z,4.60
2022-11-16T13:54:38.014Z,3.20
2022-11-16T13:56:29.345Z,3.70
2022-11-16T13:58:59.475Z,3.87
2022-11-16T14:01:56.353Z,6.17
2022-11-16T14:04:56.865Z,5.87
2022-11-16T14:07:47.956Z,2.70
2022-11-16T14:11:00.958Z,3.73
2022-11-16T14:13:40.854Z,5.17
2022-11-16T14:16:50.654Z,1.43
2022-11-16T14:19:55.947Z,4.33
2022-11-16T14:22:52.454Z,2.57
2022-11-16T14:25:33.285Z,2.67
2022-11-16T14:28:29.129Z,2.13
2022-11-16T14:31:08.899Z,4.80
2022-11-16T14:33:39.472Z,5.87
2022-11-16T14:36:10.930Z,3.63
2022-11-16T14:38:41.451Z,3.10
2022-11-16T14:41:19.968Z,4.80
2022-11-16T14:43:52.899Z,5.90
2022-11-16T14:46:26.311Z,2.43
2022-11-16T14:48:58.337Z,5.20
2022-11-16T14:51:31.990Z,3.73
2022-11-16T14:54:02.981Z,3.33
2022-11-16T14:56:35.000Z,3.43
2022-11-16T14:59:04.439Z,7.17
2022-11-16T15:01:37.004Z,9.90
2022-11-16T15:04:18.990Z,9.57
2022-11-16T15:06:52.522Z,7.53
2022-11-16T15:09:27.709Z,4.40
2022-11-16T15:12:14.899Z,3.90
2022-11-16T15:14:49.397Z,4.47
2022-11-16T15:17:20.190Z,9.40
2022-11-16T15:20:01.069Z,5.97
2022-11-16T15:22:31.993Z,2.20
2022-11-16T15:25:02.150Z,6.80
2022-11-16T15:27:38.425Z,9.40
2022-11-16T15:30:19.192Z,11.50
2022-11-16T15:32:49.459Z,7.60
2022-11-16T15:35:23.179Z,6.30
2022-11-16T15:38:03.242Z,6.23
2022-11-16T15:40:32.240Z,2.63
2022-11-16T15:43:03.860Z,3.60
2022-11-16T15:45:33.970Z,6.60
2022-11-16T15:48:04.842Z,18.07
2022-11-16T15:50:34.452Z,6.07
2022-11-16T15:53:02.907Z,7.03
2022-11-16T15:55:35.727Z,5.97
2022-11-16T15:58:15.234Z,7.13
2022-11-16T16:00:48.622Z,7.80
2022-11-16T16:03:21.999Z,6.00
2022-11-16T16:05:53.119Z,3.87
2022-11-16T16:08:35.428Z,5.33
2022-11-16T16:11:11.876Z,13.20
2022-11-16T16:13:42.583Z,6.13
2022-11-16T16:16:31.357Z,17.50
2022-11-16T16:19:08.202Z,45.60
2022-11-16T16:21:46.968Z,55.83
2022-11-16T16:24:42.300Z,80.13
2022-11-16T16:27:14.252Z,16.13
2022-11-16T16:29:42.745Z,80.80
2022-11-16T16:32:17.013Z,67.40
2022-11-16T16:34:45.228Z,31.63
2022-11-16T16:37:15.854Z,32.33
2022-11-16T16:39:44.089Z,30.83
2022-11-16T16:42:14.707Z,26.73
2022-11-16T16:44:43.715Z,18.47
2022-11-16T16:47:12.618Z,8.97
2022-11-16T16:49:41.239Z,6.10
2022-11-16T16:52:12.876Z,3.83
2022-11-16T16:54:42.907Z,13.37
2022-11-16T16:57:15.545Z,26.73
2022-11-16T16:59:45.201Z,40.47
2022-11-16T17:02:18.428Z,14.90
2022-11-16T17:04:48.421Z,13.90
2022-11-16T17:07:17.117Z,9.87
2022-11-16T17:09:46.830Z,5.20
2022-11-16T17:12:15.025Z,5.60
2022-11-16T17:14:43.278Z,8.10
2022-11-16T17:17:11.436Z,6.83
2022-11-16T17:19:39.649Z,5.73
2022-11-16T17:22:07.822Z,4.57
2022-11-16T17:24:36.216Z,7.17
2022-11-16T17:27:06.314Z,8.77
2022-11-16T17:29:34.516Z,9.33
2022-11-16T17:32:03.239Z,6.77
2022-11-16T17:34:32.442Z,6.43
2022-11-16T17:37:00.643Z,5.63
2022-11-16T17:39:28.900Z,4.97
2022-11-16T17:41:57.079Z,6.80
2022-11-16T17:44:27.165Z,4.83
2022-11-16T17:46:55.337Z,7.17
2022-11-16T17:49:23.538Z,4.30
2022-11-16T17:51:51.760Z,6.17
2022-11-16T17:54:20.040Z,5.27
2022-11-16T17:56:48.519Z,4.07
2022-11-16T17:59:16.786Z,6.50
2022-11-16T18:01:46.735Z,4.70
2022-11-16T18:04:14.944Z,8.23
2022-11-16T18:06:43.183Z,4.70
2022-11-16T18:09:11.656Z,4.80
2022-11-16T18:11:40.148Z,5.93
2022-11-16T18:14:10.457Z,6.20
2022-11-16T18:16:41.062Z,11.87
2022-11-16T18:19:16.001Z,13.93
2022-11-16T18:21:45.108Z,14.10
2022-11-16T18:24:13.929Z,21.23
2022-11-16T18:26:42.707Z,14.00
2022-11-16T18:29:12.640Z,10.43
2022-11-16T18:31:40.976Z,15.23
2022-11-16T18:34:14.636Z,53.33
2022-11-16T18:36:42.919Z,31.13
2022-11-16T18:39:11.154Z,37.00
2022-11-16T18:41:50.127Z,6.13
2022-11-16T18:44:22.673Z,13.00
2022-11-16T18:46:50.916Z,10.77
2022-11-16T18:49:20.489Z,4.17
2022-11-16T18:51:48.787Z,3.77
2022-11-16T18:54:16.999Z,3.33
2022-11-16T18:56:45.242Z,2.50
2022-11-16T18:59:13.508Z,4.60
2022-11-16T19:01:41.756Z,4.60
2022-11-16T19:04:36.039Z,4.40
2022-11-16T19:07:04.348Z,7.50
2022-11-16T19:09:33.105Z,12.03
2022-11-16T19:12:01.321Z,18.87
2022-11-16T19:14:29.525Z,10.83
2022-11-16T19:16:57.850Z,13.03
2022-11-16T19:19:27.711Z,14.83
2022-11-16T19:21:57.310Z,7.10
2022-11-16T19:24:25.512Z,5.80
2022-11-16T19:26:53.769Z,10.53
2022-11-16T19:29:21.961Z,10.43
2022-11-16T19:31:50.213Z,9.20
2022-11-16T19:34:18.435Z,4.07
2022-11-16T19:36:46.693Z,6.63
2022-11-16T19:39:16.286Z,9.77
2022-11-16T19:41:44.497Z,7.60
2022-11-16T19:44:12.725Z,5.27
2022-11-16T19:46:40.963Z,4.87
2022-11-16T19:49:19.458Z,4.73
2022-11-16T19:51:48.545Z,4.67
2022-11-16T19:54:19.634Z,2.93
2022-11-16T19:56:53.658Z,62.97
2022-11-16T19:59:23.239Z,57.43
2022-11-16T20:01:51.478Z,18.17
2022-11-16T20:04:19.710Z,11.27
2022-11-16T20:06:48.052Z,7.90
2022-11-16T20:09:16.272Z,7.67
2022-11-16T20:11:45.889Z,5.10
2022-11-16T20:14:14.952Z,4.63
2022-11-16T20:16:44.764Z,7.10
2022-11-16T20:19:13.049Z,6.00
2022-11-16T20:21:43.422Z,5.60
2022-11-16T20:24:13.899Z,4.27
2022-11-16T20:26:46.361Z,4.30
2022-11-16T20:29:16.372Z,4.97
2022-11-16T20:31:45.303Z,4.20
2022-11-16T20:34:15.719Z,6.33
2022-11-16T20:36:46.410Z,6.33
2022-11-16T20:39:16.828Z,7.70
2022-11-16T20:41:47.932Z,10.23
2022-11-16T20:44:21.094Z,5.70
2022-11-16T20:46:50.580Z,5.40
2022-11-16T20:49:18.852Z,4.40
2022-11-16T20:51:48.350Z,4.07
2022-11-16T20:54:16.550Z,5.93
2022-11-16T20:56:48.088Z,6.97
2022-11-16T20:59:16.558Z,3.90
2022-11-16T21:02:11.126Z,3.30
2022-11-16T21:04:39.296Z,4.77
2022-11-16T21:07:07.557Z,5.43
2022-11-16T21:09:56.126Z,10.70
2022-11-16T21:12:43.227Z,10.23
2022-11-16T21:15:11.781Z,7.47
2022-11-16T21:17:40.015Z,6.13
2022-11-16T21:20:26.772Z,4.23
2022-11-16T21:22:55.545Z,4.53
2022-11-16T21:25:23.823Z,5.03
2022-11-16T21:27:53.397Z,4.83
2022-11-16T21:30:21.710Z,5.83
2022-11-16T21:32:50.432Z,5.07
2022-11-16T21:35:23.452Z,8.50
2022-11-16T21:37:51.665Z,9.47
2022-11-16T21:40:20.001Z,10.23
2022-11-16T21:42:49.989Z,23.00
2022-11-16T21:45:19.660Z,16.37
2022-11-16T21:47:47.900Z,27.30
2022-11-16T21:50:31.006Z,45.70
2022-11-16T21:53:02.003Z,27.13
2022-11-16T21:55:30.338Z,11.93
2022-11-16T21:57:58.940Z,13.50
2022-11-16T22:00:28.980Z,13.40
2022-11-16T22:02:57.227Z,16.63
2022-11-16T22:05:42.818Z,14.80
2022-11-16T22:08:12.576Z,11.93
2022-11-16T22:10:40.940Z,10.77
2022-11-16T22:13:09.099Z,8.10
2022-11-16T22:15:38.697Z,9.87
2022-11-16T22:18:07.085Z,7.97
2022-11-16T22:20:35.343Z,12.70
2022-11-16T22:23:03.559Z,7.80
2022-11-16T22:25:31.947Z,7.10
2022-11-16T22:30:51.931Z,9.10
2022-11-16T22:33:20.686Z,6.53
2022-11-16T22:35:48.849Z,6.00
2022-11-16T22:38:17.027Z,6.67
2022-11-16T22:40:51.509Z,5.77
2022-11-16T22:43:20.164Z,7.00
2022-11-16T22:45:49.888Z,7.00
2022-11-16T22:48:18.218Z,7.57
2022-11-16T22:50:46.439Z,8.70
2022-11-16T22:53:15.731Z,7.30
2022-11-16T22:55:44.639Z,8.10
2022-11-16T22:58:12.854Z,8.83
2022-11-16T23:00:42.286Z,7.00
2022-11-16T23:03:12.123Z,7.00
2022-11-16T23:05:49.505Z,6.63
2022-11-16T23:08:17.705Z,7.23
2022-11-16T23:10:59.835Z,5.83
2022-11-16T23:13:54.146Z,7.17
2022-11-16T23:16:22.378Z,5.93
2022-11-16T23:18:51.947Z,5.87
2022-11-16T23:21:37.874Z,7.27
2022-11-16T23:24:27.171Z,6.73
2022-11-16T23:27:12.982Z,8.97
2022-11-16T23:29:41.497Z,8.70
2022-11-16T23:32:10.067Z,7.00
2022-11-16T23:34:39.645Z,7.33
2022-11-16T23:37:08.987Z,6.50
2022-11-16T23:39:37.231Z,7.07
2022-11-16T23:42:23.440Z,7.70
2022-11-16T23:44:51.662Z,6.20
2022-11-16T23:47:19.871Z,7.60
2022-11-16T23:49:49.445Z,7.70
2022-11-16T23:52:17.812Z,7.03
2022-11-16T23:54:46.023Z,7.57
2022-11-16T23:57:14.274Z,6.63
2022-11-16T23:59:42.488Z,6.20
